createdAt,value
2018-11-07T00:01:20.445Z,12.28
2018-11-07T00:03:24.388Z,11.95
2018-11-07T00:05:28.241Z,12.82
2018-11-07T00:07:32.565Z,12.28
2018-11-07T00:09:36.431Z,11.65
2018-11-07T00:11:40.887Z,13.03
2018-11-07T00:13:44.796Z,12.55
2018-11-07T00:15:48.695Z,11.60
2018-11-07T00:17:52.580Z,11.68
2018-11-07T00:19:56.483Z,13.32
2018-11-07T00:22:00.387Z,13.05
2018-11-07T00:24:04.313Z,13.03
2018-11-07T00:26:08.184Z,11.93
2018-11-07T00:28:12.104Z,11.93
2018-11-07T00:30:16.026Z,12.13
2018-11-07T00:32:20.076Z,12.13
2018-11-07T00:34:24.004Z,11.35
2018-11-07T00:36:27.909Z,10.50
2018-11-07T00:38:31.788Z,11.68
2018-11-07T00:40:35.735Z,11.43
2018-11-07T00:42:40.014Z,10.78
2018-11-07T00:44:43.900Z,11.18
2018-11-07T00:46:47.796Z,11.65
2018-11-07T00:48:51.660Z,12.18
2018-11-07T00:50:55.536Z,12.20
2018-11-07T00:52:59.412Z,11.48
2018-11-07T00:55:03.262Z,11.78
2018-11-07T00:57:07.945Z,11.08
2018-11-07T00:59:11.841Z,10.93
2018-11-07T01:01:15.709Z,12.25
2018-11-07T01:03:19.582Z,10.55
2018-11-07T01:05:23.536Z,10.32
2018-11-07T01:07:27.466Z,9.68
2018-11-07T01:09:31.337Z,11.28
2018-11-07T01:11:35.418Z,11.43
2018-11-07T01:13:39.332Z,11.08
2018-11-07T01:15:43.151Z,10.23
2018-11-07T01:17:46.992Z,9.93
2018-11-07T01:19:50.836Z,11.93
2018-11-07T01:21:54.705Z,11.60
2018-11-07T01:23:58.576Z,9.35
2018-11-07T01:26:02.406Z,10.40
2018-11-07T01:28:06.647Z,12.70
2018-11-07T01:30:12.784Z,10.43
2018-11-07T01:32:16.605Z,9.58
2018-11-07T01:34:20.457Z,10.23
2018-11-07T01:36:24.326Z,10.95
2018-11-07T01:38:28.219Z,10.08
2018-11-07T01:40:32.081Z,10.72
2018-11-07T01:42:35.956Z,9.85
2018-11-07T01:44:39.827Z,13.28
2018-11-07T01:46:43.691Z,11.20
2018-11-07T01:48:47.657Z,12.25
2018-11-07T01:50:51.597Z,10.32
2018-11-07T01:52:55.476Z,11.65
2018-11-07T01:54:59.417Z,10.90
2018-11-07T01:57:03.360Z,9.68
2018-11-07T01:59:07.332Z,10.65
2018-11-07T02:01:11.195Z,11.30
2018-11-07T02:03:15.057Z,8.80
2018-11-07T02:05:19.376Z,11.60
2018-11-07T02:07:23.291Z,11.15
2018-11-07T02:09:27.168Z,10.15
2018-11-07T02:11:31.078Z,10.38
2018-11-07T02:13:34.952Z,11.93
2018-11-07T02:15:38.915Z,9.78
2018-11-07T02:17:42.758Z,11.10
2018-11-07T02:19:46.624Z,10.70
2018-11-07T02:21:50.451Z,11.22
2018-11-07T02:23:54.322Z,11.10
2018-11-07T02:25:58.205Z,9.65
2018-11-07T02:28:02.032Z,10.35
2018-11-07T02:30:07.670Z,8.43
2018-11-07T02:32:11.542Z,10.35
2018-11-07T02:34:16.236Z,10.93
2018-11-07T02:36:20.089Z,8.38
2018-11-07T02:38:23.913Z,8.00
2018-11-07T02:40:27.756Z,10.48
2018-11-07T02:42:31.542Z,9.33
2018-11-07T02:44:35.402Z,9.73
2018-11-07T02:46:39.313Z,9.65
2018-11-07T02:48:43.105Z,9.55
2018-11-07T02:50:46.979Z,9.58
2018-11-07T02:52:50.813Z,8.85
2018-11-07T02:54:54.730Z,10.88
2018-11-07T02:56:58.513Z,9.65
2018-11-07T02:59:02.350Z,10.03
2018-11-07T03:01:06.361Z,8.20
2018-11-07T03:03:10.291Z,10.20
2018-11-07T03:05:14.140Z,8.70
2018-11-07T03:07:18.036Z,8.80
2018-11-07T03:09:21.877Z,9.08
2018-11-07T03:11:25.785Z,8.38
2018-11-07T03:13:29.686Z,9.08
2018-11-07T03:15:33.649Z,8.20
2018-11-07T03:17:37.610Z,8.25
2018-11-07T03:19:41.500Z,7.85
2018-11-07T03:21:45.409Z,8.10
2018-11-07T03:23:49.212Z,7.75
2018-11-07T03:25:53.081Z,7.17
2018-11-07T03:27:56.986Z,8.08
2018-11-07T03:30:00.828Z,8.88
2018-11-07T03:32:04.755Z,7.65
2018-11-07T03:34:08.637Z,8.43
2018-11-07T03:36:12.472Z,7.92
2018-11-07T03:38:16.717Z,7.78
2018-11-07T03:40:20.535Z,8.25
2018-11-07T03:42:24.388Z,8.10
2018-11-07T03:44:28.242Z,8.50
2018-11-07T03:46:32.093Z,8.35
2018-11-07T03:48:35.953Z,8.05
2018-11-07T03:50:39.833Z,7.60
2018-11-07T03:52:43.661Z,7.20
2018-11-07T03:54:47.490Z,7.97
2018-11-07T03:56:51.412Z,6.78
2018-11-07T03:58:55.373Z,7.58
2018-11-07T04:00:59.210Z,6.70
2018-11-07T04:03:03.263Z,7.00
2018-11-07T04:05:09.266Z,7.08
2018-11-07T04:07:13.148Z,6.80
2018-11-07T04:09:16.988Z,7.22
2018-11-07T04:11:20.918Z,6.50
2018-11-07T04:13:24.757Z,6.65
2018-11-07T04:15:28.638Z,6.78
2018-11-07T04:17:32.523Z,6.72
2018-11-07T04:19:36.382Z,6.35
2018-11-07T04:21:40.246Z,6.72
2018-11-07T04:23:48.236Z,6.60
2018-11-07T04:25:52.070Z,6.65
2018-11-07T04:27:55.957Z,5.83
2018-11-07T04:29:59.766Z,6.05
2018-11-07T04:32:03.591Z,6.70
2018-11-07T04:34:07.424Z,6.55
2018-11-07T04:36:11.297Z,6.83
2018-11-07T04:38:15.230Z,6.12
2018-11-07T04:40:19.114Z,7.08
2018-11-07T04:42:22.931Z,5.78
2018-11-07T04:44:26.752Z,6.28
2018-11-07T04:46:30.592Z,5.95
2018-11-07T04:48:34.480Z,7.08
2018-11-07T04:50:38.330Z,6.50
2018-11-07T04:52:42.188Z,6.12
2018-11-07T04:54:46.029Z,5.70
2018-11-07T04:56:49.890Z,5.85
2018-11-07T04:58:53.732Z,5.97
2018-11-07T05:00:57.597Z,6.20
2018-11-07T05:03:01.504Z,6.45
2018-11-07T05:05:05.501Z,6.42
2018-11-07T05:07:09.729Z,6.90
2018-11-07T05:09:13.568Z,6.17
2018-11-07T05:11:17.426Z,6.47
2018-11-07T05:13:21.282Z,6.67
2018-11-07T05:15:25.164Z,7.10
2018-11-07T05:17:29.056Z,6.90
2018-11-07T05:19:32.937Z,6.47
2018-11-07T05:21:36.946Z,7.42
2018-11-07T05:23:40.834Z,7.53
2018-11-07T05:25:44.665Z,6.70
2018-11-07T05:27:48.550Z,6.83
2018-11-07T05:29:52.384Z,7.08
2018-11-07T05:31:56.273Z,6.22
2018-11-07T05:34:00.292Z,7.20
2018-11-07T05:36:04.121Z,6.80
2018-11-07T05:38:07.975Z,7.08
2018-11-07T05:40:11.829Z,6.85
2018-11-07T05:42:15.667Z,6.70
2018-11-07T05:44:19.531Z,6.65
2018-11-07T05:46:23.339Z,7.35
2018-11-07T05:48:27.171Z,6.75
2018-11-07T05:50:31.071Z,6.35
2018-11-07T05:52:34.885Z,6.53
2018-11-07T05:54:38.723Z,6.78
2018-11-07T05:56:42.570Z,7.25
2018-11-07T05:58:46.415Z,7.80
2018-11-07T06:00:50.222Z,8.28
2018-11-07T06:02:54.041Z,7.65
2018-11-07T06:04:57.929Z,7.85
2018-11-07T06:07:01.773Z,7.60
2018-11-07T06:09:07.434Z,7.80
2018-11-07T06:11:11.317Z,7.90
2018-11-07T06:13:15.421Z,7.95
2018-11-07T06:15:19.299Z,8.35
2018-11-07T06:17:23.160Z,7.70
2018-11-07T06:19:26.996Z,8.18
2018-11-07T06:21:30.804Z,7.12
2018-11-07T06:23:34.687Z,7.28
2018-11-07T06:25:38.489Z,8.05
2018-11-07T06:27:42.296Z,8.98
2018-11-07T06:29:46.117Z,7.50
2018-11-07T06:31:49.936Z,8.45
2018-11-07T06:33:53.859Z,8.58
2018-11-07T06:35:57.907Z,9.45
2018-11-07T06:38:01.737Z,10.28
2018-11-07T06:40:07.795Z,8.50
2018-11-07T06:42:11.653Z,8.85
2018-11-07T06:44:15.640Z,8.68
2018-11-07T06:46:19.696Z,9.00
2018-11-07T06:48:23.868Z,9.48
2018-11-07T06:50:27.942Z,10.08
2018-11-07T06:52:31.935Z,10.13
2018-11-07T06:54:35.888Z,9.40
2018-11-07T06:56:39.739Z,9.05
2018-11-07T06:58:43.607Z,10.70
2018-11-07T07:00:47.507Z,9.83
2018-11-07T07:02:51.379Z,8.93
2018-11-07T07:04:55.282Z,9.58
2018-11-07T07:06:59.271Z,10.75
2018-11-07T07:09:03.711Z,10.43
2018-11-07T07:11:08.886Z,9.60
2018-11-07T07:13:12.764Z,9.50
2018-11-07T07:15:17.029Z,9.93
2018-11-07T07:17:20.984Z,9.43
2018-11-07T07:19:25.242Z,9.60
2018-11-07T07:21:29.152Z,10.03
2018-11-07T07:23:33.055Z,9.90
2018-11-07T07:25:37.028Z,9.45
2018-11-07T07:27:41.481Z,9.93
2018-11-07T07:29:45.545Z,8.58
2018-11-07T07:31:49.663Z,8.58
2018-11-07T07:33:53.502Z,7.83
2018-11-07T07:35:57.535Z,7.03
2018-11-07T07:38:01.505Z,8.10
2018-11-07T07:40:08.286Z,8.08
2018-11-07T07:42:12.122Z,8.60
2018-11-07T07:44:18.157Z,8.78
2018-11-07T07:46:28.748Z,8.10
2018-11-07T07:48:33.647Z,8.15
2018-11-07T07:50:39.257Z,8.70
2018-11-07T07:52:43.504Z,7.50
2018-11-07T07:54:47.516Z,7.47
2018-11-07T07:56:57.723Z,6.97
2018-11-07T07:59:03.707Z,6.93
2018-11-07T08:01:07.404Z,6.37
2018-11-07T08:03:11.047Z,5.93
2018-11-07T08:05:14.803Z,6.07
2018-11-07T08:07:18.664Z,5.93
2018-11-07T08:09:22.814Z,5.93
2018-11-07T08:11:26.716Z,5.53
2018-11-07T08:13:30.309Z,4.67
2018-11-07T08:15:34.504Z,5.20
2018-11-07T08:17:38.817Z,4.60
2018-11-07T08:19:42.652Z,4.07
2018-11-07T08:21:46.419Z,4.17
2018-11-07T08:23:55.044Z,4.57
2018-11-07T08:25:58.757Z,4.40
2018-11-07T08:28:07.872Z,4.77
2018-11-07T08:30:15.229Z,5.57
2018-11-07T08:32:19.825Z,6.77
2018-11-07T08:34:24.175Z,5.80
2018-11-07T08:36:27.883Z,5.30
2018-11-07T08:38:35.424Z,5.23
2018-11-07T08:40:39.150Z,3.80
2018-11-07T08:42:42.883Z,3.40
2018-11-07T08:44:46.533Z,3.40
2018-11-07T08:46:50.235Z,3.30
2018-11-07T08:48:53.848Z,3.20
2018-11-07T08:50:58.173Z,3.60
2018-11-07T08:53:02.753Z,3.50
2018-11-07T08:55:12.114Z,3.03
2018-11-07T08:57:16.617Z,3.80
2018-11-07T08:59:20.489Z,4.60
2018-11-07T09:01:24.606Z,3.97
2018-11-07T09:03:28.602Z,4.57
2018-11-07T09:05:32.352Z,4.20
2018-11-07T09:07:36.227Z,3.53
2018-11-07T09:09:39.902Z,3.90
2018-11-07T09:11:43.816Z,3.20
2018-11-07T09:13:47.712Z,3.70
2018-11-07T09:15:51.784Z,2.80
2018-11-07T09:17:55.809Z,3.20
2018-11-07T09:19:59.602Z,3.00
2018-11-07T09:22:05.148Z,2.40
2018-11-07T09:24:08.787Z,2.67
2018-11-07T09:26:12.405Z,2.77
2018-11-07T09:28:16.850Z,3.00
2018-11-07T09:30:21.872Z,2.90
2018-11-07T09:32:25.823Z,3.07
2018-11-07T09:34:30.412Z,1.97
2018-11-07T09:36:34.557Z,2.00
2018-11-07T09:38:38.255Z,2.50
2018-11-07T09:40:42.698Z,1.93
2018-11-07T09:42:47.150Z,3.30
2018-11-07T09:44:50.806Z,2.17
2018-11-07T09:46:54.461Z,2.63
2018-11-07T09:48:58.397Z,2.53
2018-11-07T09:51:02.149Z,2.50
2018-11-07T09:53:06.008Z,2.67
2018-11-07T09:55:12.923Z,2.27
2018-11-07T09:57:16.712Z,2.00
2018-11-07T09:59:20.707Z,1.90
2018-11-07T10:01:24.691Z,1.73
2018-11-07T10:03:28.510Z,1.70
2018-11-07T10:05:32.247Z,1.80
2018-11-07T10:07:36.568Z,2.00
2018-11-07T10:09:40.231Z,1.53
2018-11-07T10:11:44.137Z,1.67
2018-11-07T10:13:48.454Z,1.37
2018-11-07T10:15:52.489Z,1.80
2018-11-07T10:17:56.132Z,1.67
2018-11-07T10:20:00.325Z,1.60
2018-11-07T10:22:04.001Z,1.60
2018-11-07T10:24:07.646Z,1.20
2018-11-07T10:26:11.383Z,0.97
2018-11-07T10:28:15.391Z,0.60
2018-11-07T10:30:20.268Z,0.87
2018-11-07T10:32:23.953Z,0.70
2018-11-07T10:34:27.615Z,0.80
2018-11-07T10:36:31.219Z,0.60
2018-11-07T10:38:34.944Z,0.50
2018-11-07T10:40:38.913Z,0.80
2018-11-07T10:42:43.788Z,0.50
2018-11-07T10:44:47.444Z,0.60
2018-11-07T10:46:51.048Z,0.73
2018-11-07T10:48:56.811Z,0.60
2018-11-07T10:51:00.449Z,0.60
2018-11-07T10:53:04.721Z,0.80
2018-11-07T10:55:09.203Z,0.73
2018-11-07T10:57:12.736Z,0.70
2018-11-07T10:59:16.291Z,0.60
2018-11-07T11:01:25.859Z,0.87
2018-11-07T11:03:31.424Z,0.70
2018-11-07T11:05:35.363Z,0.73
2018-11-07T11:07:39.457Z,0.70
2018-11-07T11:09:43.125Z,0.67
2018-11-07T11:11:46.669Z,0.73
2018-11-07T11:13:50.521Z,0.50
2018-11-07T11:15:54.079Z,0.60
2018-11-07T11:17:57.566Z,0.80
2018-11-07T11:20:01.091Z,0.60
2018-11-07T11:22:04.724Z,0.50
2018-11-07T11:24:08.255Z,0.70
2018-11-07T11:26:11.776Z,0.73
2018-11-07T11:28:15.383Z,0.40
2018-11-07T11:30:18.888Z,0.50
2018-11-07T11:32:22.417Z,0.60
2018-11-07T11:34:26.037Z,0.40
2018-11-07T11:36:30.130Z,0.60
2018-11-07T11:38:33.993Z,0.63
2018-11-07T11:40:37.557Z,0.53
2018-11-07T11:42:42.232Z,0.60
2018-11-07T11:44:45.845Z,0.47
2018-11-07T11:46:49.476Z,0.70
2018-11-07T11:48:53.157Z,0.57
2018-11-07T11:50:56.839Z,0.60
2018-11-07T11:53:00.326Z,0.47
2018-11-07T11:55:03.988Z,0.57
2018-11-07T11:57:07.892Z,0.53
2018-11-07T11:59:11.591Z,0.60
2018-11-07T12:01:15.147Z,0.67
2018-11-07T12:03:18.943Z,1.03
2018-11-07T12:05:22.501Z,0.60
2018-11-07T12:07:31.122Z,0.63
2018-11-07T12:09:37.954Z,0.60
2018-11-07T12:11:41.486Z,0.67
2018-11-07T12:13:45.728Z,0.70
2018-11-07T12:15:49.269Z,0.63
2018-11-07T12:17:53.194Z,0.60
2018-11-07T12:19:56.695Z,0.60
2018-11-07T12:22:07.277Z,0.70
2018-11-07T12:24:10.805Z,0.90
2018-11-07T12:26:14.449Z,0.50
2018-11-07T12:28:17.994Z,0.60
2018-11-07T12:30:22.877Z,1.17
2018-11-07T12:32:29.133Z,1.97
2018-11-07T12:34:32.941Z,1.50
2018-11-07T12:36:36.529Z,0.90
2018-11-07T12:38:40.337Z,0.80
2018-11-07T12:40:43.933Z,0.80
2018-11-07T12:42:47.725Z,0.70
2018-11-07T12:44:51.315Z,0.60
2018-11-07T12:47:01.697Z,0.80
2018-11-07T12:49:05.630Z,1.00
2018-11-07T12:51:09.318Z,0.80
2018-11-07T12:53:12.877Z,0.83
2018-11-07T12:55:17.016Z,0.60
2018-11-07T12:57:20.714Z,0.83
2018-11-07T12:59:24.517Z,1.00
2018-11-07T13:01:28.118Z,1.07
2018-11-07T13:03:31.632Z,0.70
2018-11-07T13:05:35.239Z,0.80
2018-11-07T13:07:39.133Z,0.87
2018-11-07T13:09:42.745Z,0.93
2018-11-07T13:11:46.351Z,1.20
2018-11-07T13:13:49.980Z,0.77
2018-11-07T13:15:53.630Z,0.80
2018-11-07T13:17:57.304Z,1.20
2018-11-07T13:20:00.894Z,0.90
2018-11-07T13:22:04.657Z,1.40
2018-11-07T13:24:08.369Z,1.27
2018-11-07T13:26:11.931Z,1.27
2018-11-07T13:28:15.592Z,1.30
2018-11-07T13:30:21.277Z,1.10
2018-11-07T13:32:24.873Z,1.10
2018-11-07T13:34:28.567Z,1.30
2018-11-07T13:36:35.791Z,0.90
2018-11-07T13:38:39.648Z,1.13
2018-11-07T13:40:44.678Z,1.50
2018-11-07T13:42:48.956Z,1.00
2018-11-07T13:44:53.417Z,1.07
2018-11-07T13:46:56.998Z,1.20
2018-11-07T13:49:00.975Z,1.20
2018-11-07T13:51:04.620Z,1.10
2018-11-07T13:53:08.628Z,1.10
2018-11-07T13:55:13.438Z,1.10
2018-11-07T13:57:17.081Z,1.23
2018-11-07T13:59:20.660Z,1.03
2018-11-07T14:01:24.525Z,1.00
2018-11-07T14:03:28.159Z,1.00
2018-11-07T14:05:31.999Z,1.50
2018-11-07T14:07:35.905Z,1.20
2018-11-07T14:09:39.480Z,1.20
2018-11-07T14:11:43.137Z,1.30
2018-11-07T14:13:46.872Z,1.20
2018-11-07T14:15:50.501Z,0.97
2018-11-07T14:17:55.144Z,1.20
2018-11-07T14:19:58.725Z,1.00
2018-11-07T14:22:02.304Z,1.60
2018-11-07T14:24:06.588Z,0.97
2018-11-07T14:26:10.153Z,1.20
2018-11-07T14:28:14.500Z,1.20
2018-11-07T14:30:19.410Z,1.40
2018-11-07T14:32:23.020Z,1.07
2018-11-07T14:34:30.829Z,1.33
2018-11-07T14:36:34.396Z,1.17
2018-11-07T14:38:38.008Z,1.30
2018-11-07T14:40:41.666Z,1.70
2018-11-07T14:42:45.242Z,1.80
2018-11-07T14:44:48.873Z,1.57
2018-11-07T14:46:52.417Z,1.83
2018-11-07T14:48:55.952Z,1.40
2018-11-07T14:50:59.614Z,1.37
2018-11-07T14:53:03.140Z,1.50
2018-11-07T14:55:07.591Z,1.70
2018-11-07T14:57:11.220Z,1.40
2018-11-07T14:59:14.795Z,1.40
2018-11-07T15:03:50.768Z,1.97
2018-11-07T15:05:54.370Z,1.50
2018-11-07T15:07:58.501Z,1.27
2018-11-07T15:10:02.075Z,1.60
2018-11-07T15:12:06.184Z,1.77
2018-11-07T15:14:10.336Z,1.43
2018-11-07T15:16:14.402Z,1.53
2018-11-07T15:18:17.968Z,2.17
2018-11-07T15:20:21.689Z,1.63
2018-11-07T15:22:25.397Z,1.70
2018-11-07T15:24:28.939Z,1.60
2018-11-07T15:26:32.495Z,1.40
2018-11-07T15:28:36.073Z,1.90
2018-11-07T15:30:39.662Z,1.70
2018-11-07T15:32:43.896Z,2.87
2018-11-07T15:34:47.484Z,2.00
2018-11-07T15:36:51.083Z,1.93
2018-11-07T15:38:54.737Z,2.20
2018-11-07T15:40:58.286Z,1.90
2018-11-07T15:43:01.865Z,1.90
2018-11-07T15:45:06.384Z,2.83
2018-11-07T15:47:10.020Z,1.80
2018-11-07T15:49:13.978Z,2.27
2018-11-07T15:51:22.600Z,2.33
2018-11-07T15:53:26.090Z,2.10
2018-11-07T15:55:29.614Z,1.90
2018-11-07T15:57:33.215Z,1.80
2018-11-07T15:59:36.787Z,1.57
2018-11-07T16:01:40.432Z,1.60
2018-11-07T16:03:51.022Z,1.57
2018-11-07T16:05:54.610Z,1.70
2018-11-07T16:07:58.347Z,1.57
2018-11-07T16:10:01.929Z,1.40
2018-11-07T16:12:06.367Z,1.40
2018-11-07T16:14:09.976Z,1.30
2018-11-07T16:16:13.717Z,1.97
2018-11-07T16:18:17.253Z,1.40
2018-11-07T16:20:21.277Z,1.30
2018-11-07T16:22:25.213Z,1.30
2018-11-07T16:24:28.732Z,2.03
2018-11-07T16:26:32.281Z,1.50
2018-11-07T16:28:35.831Z,1.20
2018-11-07T16:30:39.523Z,1.30
2018-11-07T16:32:43.928Z,1.63
2018-11-07T16:34:50.770Z,1.63
2018-11-07T16:36:54.733Z,2.03
2018-11-07T16:38:58.274Z,1.40
2018-11-07T16:41:01.824Z,1.43
2018-11-07T16:43:05.965Z,1.40
2018-11-07T16:45:10.780Z,1.50
2018-11-07T16:47:14.312Z,1.90
2018-11-07T16:49:17.815Z,1.37
2018-11-07T16:51:21.332Z,1.27
2018-11-07T16:53:24.878Z,1.50
2018-11-07T16:55:34.992Z,1.60
2018-11-07T16:57:39.193Z,1.50
2018-11-07T16:59:42.740Z,1.73
2018-11-07T17:01:46.300Z,1.43
2018-11-07T17:03:49.884Z,1.57
2018-11-07T17:05:53.744Z,1.20
2018-11-07T17:07:57.279Z,1.40
2018-11-07T17:10:08.764Z,1.30
2018-11-07T17:12:12.277Z,1.20
2018-11-07T17:14:15.931Z,1.40
2018-11-07T17:16:19.498Z,1.40
2018-11-07T17:18:23.067Z,1.70
2018-11-07T17:20:26.572Z,2.23
2018-11-07T17:22:30.076Z,1.43
2018-11-07T17:24:33.749Z,1.57
2018-11-07T17:26:37.396Z,1.83
2018-11-07T17:28:41.148Z,1.63
2018-11-07T17:30:44.663Z,1.80
2018-11-07T17:32:48.184Z,1.80
2018-11-07T17:34:51.792Z,1.40
2018-11-07T17:36:55.311Z,1.50
2018-11-07T17:39:03.051Z,1.63
2018-11-07T17:41:07.625Z,1.73
2018-11-07T17:43:11.173Z,2.37
2018-11-07T17:45:16.579Z,2.20
2018-11-07T17:47:20.121Z,1.90
2018-11-07T17:49:23.652Z,2.40
2018-11-07T17:51:27.227Z,1.73
2018-11-07T17:53:30.952Z,2.30
2018-11-07T17:55:34.505Z,2.07
2018-11-07T17:57:38.068Z,2.27
2018-11-07T17:59:41.603Z,2.00
2018-11-07T18:01:45.167Z,2.13
2018-11-07T18:03:48.850Z,2.57
2018-11-07T18:05:52.503Z,2.43
2018-11-07T18:07:56.067Z,2.20
2018-11-07T18:09:59.653Z,2.50
2018-11-07T18:12:03.265Z,2.43
2018-11-07T18:14:08.009Z,2.27
2018-11-07T18:16:12.213Z,3.10
2018-11-07T18:18:15.804Z,2.60
2018-11-07T18:20:19.687Z,3.00
2018-11-07T18:22:23.264Z,2.50
2018-11-07T18:24:26.862Z,2.77
2018-11-07T18:26:30.400Z,3.17
2018-11-07T18:28:33.947Z,3.10
2018-11-07T18:30:38.138Z,3.20
2018-11-07T18:32:42.278Z,3.30
2018-11-07T18:34:45.859Z,3.20
2018-11-07T18:36:49.372Z,3.23
2018-11-07T18:38:52.980Z,2.93
2018-11-07T18:40:56.524Z,3.10
2018-11-07T18:43:00.146Z,3.47
2018-11-07T18:45:03.972Z,3.40
2018-11-07T18:47:07.520Z,3.43
2018-11-07T18:49:11.448Z,3.50
2018-11-07T18:51:15.004Z,2.83
2018-11-07T18:53:18.523Z,3.33
2018-11-07T18:55:22.101Z,3.50
2018-11-07T18:57:25.629Z,3.50
2018-11-07T18:59:29.167Z,3.03
2018-11-07T19:01:32.690Z,3.87
2018-11-07T19:03:36.211Z,3.30
2018-11-07T19:05:39.797Z,3.20
2018-11-07T19:07:43.543Z,3.27
2018-11-07T19:09:47.081Z,3.60
2018-11-07T19:11:50.643Z,3.10
2018-11-07T19:13:54.190Z,3.60
2018-11-07T19:15:57.740Z,3.47
2018-11-07T19:18:01.237Z,3.87
2018-11-07T19:20:05.272Z,3.67
2018-11-07T19:22:08.812Z,4.00
2018-11-07T19:24:12.353Z,3.47
2018-11-07T19:26:16.316Z,3.70
2018-11-07T19:28:19.899Z,3.90
2018-11-07T19:30:23.639Z,3.23
2018-11-07T19:32:27.541Z,3.37
2018-11-07T19:34:31.109Z,4.03
2018-11-07T19:36:34.653Z,3.53
2018-11-07T19:38:38.157Z,4.00
2018-11-07T19:40:41.896Z,3.90
2018-11-07T19:42:45.437Z,3.70
2018-11-07T19:44:49.066Z,3.90
2018-11-07T19:46:52.679Z,3.70
2018-11-07T19:48:56.348Z,4.03
2018-11-07T19:50:59.861Z,3.70
2018-11-07T19:53:03.351Z,3.57
2018-11-07T19:55:08.818Z,4.37
2018-11-07T19:57:12.658Z,3.90
2018-11-07T19:59:16.184Z,4.53
2018-11-07T20:01:19.777Z,3.80
2018-11-07T20:03:23.271Z,3.90
2018-11-07T20:05:26.860Z,3.70
2018-11-07T20:07:30.464Z,3.40
2018-11-07T20:09:33.959Z,4.30
2018-11-07T20:11:37.661Z,3.70
2018-11-07T20:13:41.238Z,4.27
2018-11-07T20:15:44.749Z,4.50
2018-11-07T20:17:48.778Z,3.57
2018-11-07T20:19:52.305Z,3.83
2018-11-07T20:21:55.824Z,3.90
2018-11-07T20:23:59.526Z,3.23
2018-11-07T20:26:03.102Z,3.67
2018-11-07T20:28:06.804Z,3.70
2018-11-07T20:30:12.308Z,2.87
2018-11-07T20:32:15.865Z,3.90
2018-11-07T20:34:19.409Z,3.80
2018-11-07T20:36:22.985Z,3.60
2018-11-07T20:38:26.626Z,3.47
2018-11-07T20:40:30.168Z,3.20
2018-11-07T20:42:33.741Z,3.40
2018-11-07T20:44:37.322Z,3.50
2018-11-07T20:46:40.863Z,3.37
2018-11-07T20:48:44.745Z,3.20
2018-11-07T20:50:48.522Z,3.50
2018-11-07T20:52:52.110Z,2.90
2018-11-07T20:54:55.686Z,3.00
2018-11-07T20:56:59.440Z,3.20
2018-11-07T20:59:02.977Z,3.03
2018-11-07T21:01:06.643Z,3.27
2018-11-07T21:03:10.199Z,3.27
2018-11-07T21:05:13.788Z,2.97
2018-11-07T21:07:17.388Z,2.93
2018-11-07T21:09:20.884Z,3.00
2018-11-07T21:11:24.402Z,2.87
2018-11-07T21:13:28.059Z,2.60
2018-11-07T21:15:31.602Z,3.00
2018-11-07T21:17:35.133Z,2.50
2018-11-07T21:19:38.665Z,2.67
2018-11-07T21:21:42.178Z,2.63
2018-11-07T21:23:45.714Z,2.80
2018-11-07T21:25:49.228Z,2.93
2018-11-07T21:27:52.793Z,2.67
2018-11-07T21:29:56.320Z,2.50
2018-11-07T21:31:59.899Z,2.70
2018-11-07T21:34:03.465Z,2.43
2018-11-07T21:36:07.015Z,2.67
2018-11-07T21:38:10.560Z,2.53
2018-11-07T21:40:15.843Z,2.60
2018-11-07T21:42:19.415Z,2.70
2018-11-07T21:44:22.943Z,2.10
2018-11-07T21:46:26.437Z,2.90
2018-11-07T21:48:30.016Z,2.50
2018-11-07T21:50:33.542Z,1.90
2018-11-07T21:52:37.168Z,2.70
2018-11-07T21:54:40.757Z,2.70
2018-11-07T21:56:44.424Z,2.30
2018-11-07T21:58:47.995Z,2.40
2018-11-07T22:00:51.531Z,2.20
2018-11-07T22:02:55.153Z,2.30
2018-11-07T22:04:58.882Z,2.63
2018-11-07T22:07:02.426Z,2.33
2018-11-07T22:09:08.607Z,2.77
2018-11-07T22:11:12.155Z,2.03
2018-11-07T22:13:15.974Z,2.07
2018-11-07T22:15:19.621Z,2.50
2018-11-07T22:17:23.175Z,1.97
2018-11-07T22:19:26.761Z,2.10
2018-11-07T22:21:30.444Z,2.63
2018-11-07T22:23:33.983Z,2.53
2018-11-07T22:25:37.531Z,2.60
2018-11-07T22:27:41.099Z,2.20
2018-11-07T22:29:44.663Z,2.10
2018-11-07T22:31:48.262Z,2.20
2018-11-07T22:33:51.835Z,2.27
2018-11-07T22:35:55.390Z,2.13
2018-11-07T22:37:58.915Z,2.30
2018-11-07T22:40:02.423Z,2.43
2018-11-07T22:42:06.091Z,2.20
2018-11-07T22:44:10.298Z,2.30
2018-11-07T22:46:13.851Z,2.10
2018-11-07T22:48:17.424Z,1.87
2018-11-07T22:50:20.947Z,2.00
2018-11-07T22:52:24.452Z,2.20
2018-11-07T22:54:28.038Z,2.40
2018-11-07T22:56:31.612Z,1.87
2018-11-07T22:58:35.145Z,2.00
2018-11-07T23:00:44.776Z,2.10
2018-11-07T23:02:49.306Z,2.10
2018-11-07T23:04:52.889Z,1.63
2018-11-07T23:06:56.437Z,1.63
2018-11-07T23:08:59.978Z,2.23
2018-11-07T23:11:03.532Z,2.00
2018-11-07T23:13:07.113Z,1.70
2018-11-07T23:15:10.752Z,1.53
2018-11-07T23:17:14.291Z,2.03
2018-11-07T23:19:17.906Z,1.90
2018-11-07T23:21:21.627Z,1.90
2018-11-07T23:23:25.250Z,1.70
2018-11-07T23:25:28.810Z,1.83
2018-11-07T23:27:32.301Z,1.80
2018-11-07T23:29:35.928Z,1.70
2018-11-07T23:31:39.470Z,1.70
2018-11-07T23:33:43.022Z,1.33
2018-11-07T23:35:46.612Z,1.40
2018-11-07T23:37:50.182Z,1.40
2018-11-07T23:39:53.821Z,1.30
2018-11-07T23:41:57.332Z,1.10
2018-11-07T23:44:00.873Z,1.10
2018-11-07T23:46:04.792Z,1.30
2018-11-07T23:48:08.323Z,1.20
2018-11-07T23:50:11.837Z,1.30
2018-11-07T23:52:20.690Z,1.37
2018-11-07T23:54:24.259Z,1.43
2018-11-07T23:56:27.814Z,1.50
2018-11-07T23:58:34.292Z,1.60
